This is the latest recevied weather packets stored in our database for station/object F4FEB-13. If no packets are shown the sender has not sent any weather packets the latest 10 day(s).
| Time | Temp. | Humidity | Pressure | Rain* | Wind** | Luminosity | Snow |
|---|---|---|---|---|---|---|---|
| 1777533875 | 11.11° C | 49% | 1019.7 hPa | 0 mm | - | - | - |
| 1777533575 | 10.56° C | 50% | 1019.6 hPa | 0 mm | - | - | - |
| 1777533277 | 10.56° C | 52% | 1019.6 hPa | 0 mm | - | - | - |
| 1777533275 | 10.56° C | 52% | 1019.6 hPa | 0 mm | - | - | - |
| 1777532975 | 10.56° C | 51% | 1019.6 hPa | 0 mm | - | - | - |
| 1777532675 | 10.56° C | 52% | 1019.7 hPa | 0 mm | - | - | - |
| 1777532375 | 10.56° C | 50% | 1019.6 hPa | 0 mm | - | - | - |
| 1777532075 | 10° C | 50% | 1019.5 hPa | 0 mm | - | - | - |
| 1777531775 | 10.56° C | 49% | 1019.6 hPa | 0 mm | - | - | - |
| 1777531475 | 10.56° C | 49% | 1019.6 hPa | 0 mm | - | - | - |
| 1777531175 | 9.44° C | 51% | 1019.6 hPa | 0 mm | - | - | - |
| 1777530875 | 8.89° C | 54% | 1019.6 hPa | 0 mm | - | - | - |
| 1777530575 | 8.89° C | 54% | 1019.6 hPa | 0 mm | - | - | - |
| 1777530275 | 8.33° C | 55% | 1019.6 hPa | 0 mm | - | - | - |
| 1777529975 | 8.33° C | 55% | 1019.6 hPa | 0 mm | - | - | - |
| 1777529675 | 8.33° C | 55% | 1019.6 hPa | 0 mm | - | - | - |
| 1777529375 | 7.78° C | 55% | 1019.5 hPa | 0 mm | - | - | - |
| 1777529075 | 7.78° C | 55% | 1019.6 hPa | 0 mm | - | - | - |
| 1777528778 | 7.78° C | 55% | 1019.5 hPa | 0 mm | - | - | - |
| 1777528775 | 7.78° C | 55% | 1019.5 hPa | 0 mm | - | - | - |
| 1777528475 | 7.78° C | 55% | 1019.5 hPa | 0 mm | - | - | - |
| 1777528175 | 7.78° C | 56% | 1019.6 hPa | 0 mm | - | - | - |
| 1777527575 | 7.22° C | 56% | 1019.6 hPa | 0 mm | - | - | - |
| 1777527275 | 7.22° C | 56% | 1019.5 hPa | 0 mm | - | - | - |
| 1777526975 | 7.22° C | 57% | 1019.5 hPa | 0 mm | - | - | - |
* Rain latest hour (hover to see other rain measurements)
** Current wind speed in m/s (hover to see current wind gust speed)